createdAt,value
2019-02-11T00:01:14.048Z,6.43
2019-02-11T00:04:17.165Z,6.44
2019-02-11T00:07:20.231Z,6.41
2019-02-11T00:10:23.298Z,6.39
2019-02-11T00:13:26.359Z,6.45
2019-02-11T00:16:29.531Z,6.37
2019-02-11T00:19:32.633Z,6.43
2019-02-11T00:22:35.838Z,6.42
2019-02-11T00:25:39.016Z,6.40
2019-02-11T00:28:42.107Z,6.35
2019-02-11T00:31:45.172Z,6.38
2019-02-11T00:34:48.239Z,6.35
2019-02-11T00:37:51.389Z,6.47
2019-02-11T00:40:54.481Z,6.47
2019-02-11T00:43:57.576Z,6.38
2019-02-11T00:47:00.672Z,6.42
2019-02-11T00:50:03.824Z,6.57
2019-02-11T00:53:06.891Z,6.50
2019-02-11T00:56:10.036Z,6.47
2019-02-11T00:59:13.149Z,6.50
2019-02-11T01:02:16.235Z,6.53
2019-02-11T01:05:19.330Z,6.53
2019-02-11T01:08:22.399Z,6.52
2019-02-11T01:11:25.498Z,6.49
2019-02-11T01:14:28.587Z,6.66
2019-02-11T01:17:31.667Z,6.52
2019-02-11T01:20:34.791Z,6.56
2019-02-11T01:23:37.970Z,6.57
2019-02-11T01:26:41.070Z,6.48
2019-02-11T01:29:44.150Z,6.48
2019-02-11T01:32:47.237Z,6.47
2019-02-11T01:35:50.304Z,6.42
2019-02-11T01:38:53.411Z,6.37
2019-02-11T01:41:56.511Z,6.35
2019-02-11T01:44:59.614Z,6.34
2019-02-11T01:48:02.687Z,6.40
2019-02-11T01:51:05.798Z,6.17
2019-02-11T01:54:08.888Z,6.12
2019-02-11T01:57:11.982Z,6.07
2019-02-11T02:00:15.084Z,5.90
2019-02-11T02:03:18.160Z,5.98
2019-02-11T02:06:21.255Z,5.99
2019-02-11T02:09:24.339Z,6.05
2019-02-11T02:12:27.447Z,6.17
2019-02-11T02:15:30.525Z,6.12
2019-02-11T02:18:33.611Z,6.08
2019-02-11T02:21:36.707Z,6.10
2019-02-11T02:24:39.768Z,6.12
2019-02-11T02:27:42.911Z,6.16
2019-02-11T02:30:46.000Z,6.07
2019-02-11T02:33:49.091Z,6.09
2019-02-11T02:36:52.184Z,6.06
2019-02-11T02:39:55.241Z,6.20
2019-02-11T02:42:58.575Z,6.20
2019-02-11T02:46:01.619Z,6.16
2019-02-11T02:49:04.756Z,6.17
2019-02-11T02:52:07.840Z,6.07
2019-02-11T02:55:10.970Z,6.13
2019-02-11T02:58:14.132Z,6.22
2019-02-11T03:01:17.222Z,6.24
2019-02-11T03:04:20.279Z,6.20
2019-02-11T03:07:23.332Z,6.19
2019-02-11T03:10:26.528Z,6.25
2019-02-11T03:13:29.575Z,6.09
2019-02-11T03:16:32.651Z,6.10
2019-02-11T03:19:35.763Z,6.07
2019-02-11T03:22:38.856Z,6.09
2019-02-11T03:25:42.593Z,6.11
2019-02-11T03:28:45.761Z,6.06
2019-02-11T03:31:48.845Z,6.09
2019-02-11T03:34:51.951Z,6.15
2019-02-11T03:37:55.028Z,6.19
2019-02-11T03:40:58.134Z,6.11
2019-02-11T03:44:01.227Z,6.03
2019-02-11T03:47:04.306Z,6.08
2019-02-11T03:50:07.812Z,6.19
2019-02-11T03:53:10.872Z,6.27
2019-02-11T03:56:13.992Z,6.20
2019-02-11T03:59:17.083Z,6.17
2019-02-11T04:02:20.195Z,6.21
2019-02-11T04:05:23.396Z,6.13
2019-02-11T04:08:26.480Z,6.11
2019-02-11T04:11:29.566Z,6.13
2019-02-11T04:14:32.659Z,6.20
2019-02-11T04:17:35.749Z,6.13
2019-02-11T04:20:38.907Z,6.15
2019-02-11T04:23:42.030Z,6.06
2019-02-11T04:26:45.120Z,6.19
2019-02-11T04:29:48.220Z,6.16
2019-02-11T04:32:51.370Z,6.07
2019-02-11T04:35:54.383Z,6.17
2019-02-11T04:38:57.499Z,6.04
2019-02-11T04:42:00.559Z,6.14
2019-02-11T04:45:03.919Z,6.17
2019-02-11T04:48:07.075Z,6.20
2019-02-11T04:51:10.155Z,6.12
2019-02-11T04:54:13.254Z,6.12
2019-02-11T04:57:16.346Z,6.07
2019-02-11T05:00:19.469Z,6.12
2019-02-11T05:03:22.644Z,6.12
2019-02-11T05:06:25.834Z,6.06
2019-02-11T05:09:28.918Z,6.09
2019-02-11T05:12:31.997Z,6.19
2019-02-11T05:15:35.107Z,6.16
2019-02-11T05:18:38.210Z,6.05
2019-02-11T05:21:41.292Z,6.04
2019-02-11T05:24:44.377Z,6.06
2019-02-11T05:27:47.464Z,6.18
2019-02-11T05:30:50.551Z,6.07
2019-02-11T05:33:53.660Z,6.09
2019-02-11T05:36:56.749Z,5.96
2019-02-11T05:39:59.851Z,5.94
2019-02-11T05:43:02.939Z,5.94
2019-02-11T05:46:06.026Z,5.80
2019-02-11T05:49:09.126Z,5.87
2019-02-11T05:52:12.329Z,5.91
2019-02-11T05:55:15.404Z,5.97
2019-02-11T05:58:18.456Z,5.93
2019-02-11T06:01:21.584Z,5.93
2019-02-11T06:04:24.656Z,5.87
2019-02-11T06:07:27.792Z,5.95
2019-02-11T06:10:31.962Z,5.98
2019-02-11T06:13:35.085Z,6.03
2019-02-11T06:16:38.263Z,5.94
2019-02-11T06:19:41.333Z,6.02
2019-02-11T06:22:44.456Z,6.03
2019-02-11T06:25:47.538Z,5.99
2019-02-11T06:28:50.627Z,5.94
2019-02-11T06:31:53.738Z,5.99
2019-02-11T06:34:57.186Z,5.98
2019-02-11T06:38:00.264Z,5.97
2019-02-11T06:41:03.424Z,6.00
2019-02-11T06:44:06.519Z,6.00
2019-02-11T06:47:09.717Z,5.91
2019-02-11T06:50:13.260Z,5.95
2019-02-11T06:53:16.345Z,6.04
2019-02-11T06:56:19.500Z,5.94
2019-02-11T06:59:22.591Z,5.83
2019-02-11T07:02:25.788Z,5.80
2019-02-11T07:05:28.876Z,5.90
2019-02-11T07:08:31.989Z,5.90
2019-02-11T07:11:35.053Z,5.89
2019-02-11T07:14:38.149Z,5.80
2019-02-11T07:17:41.199Z,5.87
2019-02-11T07:20:44.321Z,5.91
2019-02-11T07:23:47.432Z,5.86
2019-02-11T07:26:50.511Z,5.86
2019-02-11T07:29:53.612Z,5.81
2019-02-11T07:32:56.711Z,5.82
2019-02-11T07:35:59.808Z,5.83
2019-02-11T07:39:03.028Z,5.86
2019-02-11T07:42:12.374Z,5.90
2019-02-11T07:45:29.705Z,5.78
2019-02-11T07:48:24.643Z,5.77
2019-02-11T07:51:27.752Z,5.79
2019-02-11T07:54:30.833Z,5.73
2019-02-11T07:57:33.962Z,5.81
2019-02-11T08:00:37.139Z,5.71
2019-02-11T08:03:40.324Z,5.81
2019-02-11T08:06:43.395Z,5.88
2019-02-11T08:09:46.508Z,5.83
2019-02-11T08:12:49.699Z,5.88
2019-02-11T08:15:52.795Z,5.82
2019-02-11T08:18:55.892Z,5.83
2019-02-11T08:21:59.011Z,5.91
2019-02-11T08:25:02.200Z,5.85
2019-02-11T08:28:05.393Z,5.87
2019-02-11T08:31:08.467Z,5.86
2019-02-11T08:34:11.649Z,5.91
2019-02-11T08:37:14.748Z,5.99
2019-02-11T08:40:17.845Z,6.00
2019-02-11T08:43:21.031Z,6.10
2019-02-11T08:46:24.147Z,6.01
2019-02-11T08:49:27.315Z,5.96
2019-02-11T08:52:30.409Z,6.03
2019-02-11T08:55:33.476Z,6.09
2019-02-11T08:58:36.621Z,5.98
2019-02-11T09:01:39.808Z,6.14
2019-02-11T09:04:42.991Z,6.12
2019-02-11T09:07:46.118Z,6.18
2019-02-11T09:10:49.270Z,6.29
2019-02-11T09:13:52.324Z,6.37
2019-02-11T09:16:55.400Z,6.50
2019-02-11T09:19:58.475Z,6.48
2019-02-11T09:23:01.639Z,6.63
2019-02-11T09:26:04.752Z,6.69
2019-02-11T09:29:07.808Z,6.89
2019-02-11T09:32:10.887Z,6.97
2019-02-11T09:35:13.961Z,7.01
2019-02-11T09:38:17.093Z,7.21
2019-02-11T09:41:20.170Z,7.16
2019-02-11T09:44:29.481Z,7.21
2019-02-11T09:47:27.283Z,7.19
2019-02-11T09:50:34.392Z,7.21
2019-02-11T09:53:37.572Z,7.35
2019-02-11T09:56:40.660Z,7.61
2019-02-11T09:59:43.768Z,7.77
2019-02-11T10:02:46.924Z,7.59
2019-02-11T10:05:49.980Z,7.48
2019-02-11T10:08:53.135Z,7.54
2019-02-11T10:11:56.215Z,7.63
2019-02-11T10:14:59.320Z,7.63
2019-02-11T10:18:02.528Z,7.59
2019-02-11T10:21:05.695Z,7.57
2019-02-11T10:24:08.799Z,7.56
2019-02-11T10:27:11.862Z,7.33
2019-02-11T10:30:15.035Z,7.18
2019-02-11T10:33:18.130Z,7.32
2019-02-11T10:36:21.281Z,7.29
2019-02-11T10:39:24.356Z,7.37
2019-02-11T10:42:27.472Z,7.30
2019-02-11T10:45:36.491Z,7.15
2019-02-11T10:48:33.742Z,7.18
2019-02-11T10:51:36.844Z,7.10
2019-02-11T10:54:40.020Z,7.14
2019-02-11T10:57:43.407Z,7.19
2019-02-11T11:00:46.544Z,7.15
2019-02-11T11:03:49.728Z,7.20
2019-02-11T11:06:52.916Z,6.96
2019-02-11T11:09:55.987Z,6.96
2019-02-11T11:12:59.060Z,7.10
2019-02-11T11:16:02.417Z,7.12
2019-02-11T11:19:05.488Z,7.14
2019-02-11T11:22:08.592Z,6.94
2019-02-11T11:25:11.672Z,7.07
2019-02-11T11:28:14.740Z,6.85
2019-02-11T11:31:17.816Z,6.84
2019-02-11T11:34:20.875Z,6.81
2019-02-11T11:37:24.012Z,6.76
2019-02-11T11:40:27.166Z,6.92
2019-02-11T11:43:30.245Z,7.13
2019-02-11T11:46:45.592Z,7.19
2019-02-11T11:49:36.477Z,7.30
2019-02-11T11:52:39.582Z,7.18
2019-02-11T11:55:42.681Z,7.17
2019-02-11T11:58:45.783Z,7.09
2019-02-11T12:01:48.853Z,7.17
2019-02-11T12:04:51.912Z,7.24
2019-02-11T12:07:55.056Z,7.65
2019-02-11T12:10:58.133Z,7.98
2019-02-11T12:14:01.248Z,8.26
2019-02-11T12:17:04.331Z,8.15
2019-02-11T12:20:08.800Z,8.17
2019-02-11T12:23:12.007Z,8.03
2019-02-11T12:26:15.060Z,8.12
2019-02-11T12:29:18.124Z,8.02
2019-02-11T12:32:21.217Z,7.92
2019-02-11T12:35:24.282Z,8.03
2019-02-11T12:38:27.399Z,7.79
2019-02-11T12:41:30.451Z,7.78
2019-02-11T12:44:33.571Z,7.75
2019-02-11T12:47:36.668Z,7.67
2019-02-11T12:50:39.758Z,7.55
2019-02-11T12:53:42.858Z,7.50
2019-02-11T12:56:45.929Z,7.59
2019-02-11T12:59:49.059Z,7.53
2019-02-11T13:02:52.136Z,7.52
2019-02-11T13:05:55.253Z,7.60
2019-02-11T13:08:58.349Z,7.59
2019-02-11T13:12:01.409Z,7.60
2019-02-11T13:15:04.891Z,7.55
2019-02-11T13:18:08.113Z,7.60
2019-02-11T13:21:11.629Z,7.53
2019-02-11T13:24:14.192Z,7.48
2019-02-11T13:27:17.245Z,7.55
2019-02-11T13:30:20.573Z,7.67
2019-02-11T13:33:23.626Z,7.78
2019-02-11T13:36:26.771Z,7.76
2019-02-11T13:39:29.859Z,7.78
2019-02-11T13:42:32.960Z,7.77
2019-02-11T13:45:36.044Z,7.84
2019-02-11T13:48:39.178Z,7.84
2019-02-11T13:51:42.364Z,8.00
2019-02-11T13:54:45.489Z,8.24
2019-02-11T13:57:48.690Z,8.24
2019-02-11T14:00:51.749Z,8.05
2019-02-11T14:03:54.894Z,7.91
2019-02-11T14:06:57.989Z,7.76
2019-02-11T14:10:02.550Z,7.74
2019-02-11T14:13:04.222Z,7.69
2019-02-11T14:16:07.255Z,7.43
2019-02-11T14:19:10.351Z,6.89
2019-02-11T14:22:13.471Z,6.72
2019-02-11T14:25:16.550Z,6.37
2019-02-11T14:28:19.736Z,6.14
2019-02-11T14:31:22.820Z,6.18
2019-02-11T14:34:25.941Z,6.19
2019-02-11T14:37:29.015Z,6.12
2019-02-11T14:40:32.133Z,6.24
2019-02-11T14:43:35.295Z,6.57
2019-02-11T14:46:38.398Z,6.92
2019-02-11T14:49:41.477Z,7.11
2019-02-11T14:52:44.569Z,7.04
2019-02-11T14:55:47.783Z,7.25
2019-02-11T14:58:50.916Z,7.31
2019-02-11T15:01:54.046Z,7.38
2019-02-11T15:04:57.156Z,7.32
2019-02-11T15:08:00.215Z,7.26
2019-02-11T15:11:03.341Z,7.19
2019-02-11T15:14:06.426Z,7.28
2019-02-11T15:17:09.524Z,7.19
2019-02-11T15:20:13.768Z,7.27
2019-02-11T15:23:16.833Z,7.27
2019-02-11T15:26:19.935Z,7.22
2019-02-11T15:29:23.116Z,7.13
2019-02-11T15:32:26.431Z,7.03
2019-02-11T15:35:29.506Z,7.08
2019-02-11T15:38:32.576Z,7.00
2019-02-11T15:41:35.695Z,7.01
2019-02-11T15:44:38.800Z,7.00
2019-02-11T15:47:41.979Z,7.00
2019-02-11T15:50:45.078Z,7.10
2019-02-11T15:53:48.241Z,7.20
2019-02-11T15:56:51.335Z,7.05
2019-02-11T15:59:54.452Z,7.07
2019-02-11T16:02:57.537Z,6.97
2019-02-11T16:06:10.272Z,7.00
2019-02-11T16:09:05.130Z,7.05
2019-02-11T16:12:08.376Z,7.01
2019-02-11T16:15:11.380Z,7.01
2019-02-11T16:18:14.523Z,7.01
2019-02-11T16:21:17.589Z,7.05
2019-02-11T16:24:20.714Z,6.97
2019-02-11T16:27:23.803Z,7.04
2019-02-11T16:30:27.079Z,7.07
2019-02-11T16:33:30.193Z,7.06
2019-02-11T16:36:33.283Z,7.01
2019-02-11T16:39:36.369Z,6.93
2019-02-11T16:42:39.468Z,6.96
2019-02-11T16:45:42.570Z,7.09
2019-02-11T16:48:45.636Z,7.00
2019-02-11T16:51:48.704Z,7.03
2019-02-11T16:54:51.853Z,7.04
2019-02-11T16:57:55.084Z,7.05
2019-02-11T17:00:58.247Z,7.13
2019-02-11T17:04:01.343Z,6.99
2019-02-11T17:07:04.408Z,7.05
2019-02-11T17:10:08.511Z,7.00
2019-02-11T17:13:11.607Z,7.12
2019-02-11T17:16:14.697Z,7.17
2019-02-11T17:19:17.805Z,7.03
2019-02-11T17:22:20.928Z,7.08
2019-02-11T17:25:24.094Z,7.10
2019-02-11T17:28:27.252Z,7.04
2019-02-11T17:31:30.316Z,7.16
2019-02-11T17:34:33.455Z,7.16
2019-02-11T17:37:36.604Z,7.10
2019-02-11T17:40:39.779Z,7.00
2019-02-11T17:43:42.951Z,6.99
2019-02-11T17:46:46.076Z,6.99
2019-02-11T17:49:49.240Z,6.87
2019-02-11T17:52:53.064Z,6.99
2019-02-11T17:55:56.271Z,6.84
2019-02-11T17:58:59.445Z,6.85
2019-02-11T18:02:02.596Z,6.97
2019-02-11T18:05:05.664Z,6.84
2019-02-11T18:08:08.720Z,6.84
2019-02-11T18:11:11.803Z,6.79
2019-02-11T18:14:18.291Z,6.75
2019-02-11T18:17:21.359Z,6.65
2019-02-11T18:20:24.457Z,6.66
2019-02-11T18:23:27.576Z,6.62
2019-02-11T18:26:30.923Z,6.52
2019-02-11T18:29:34.062Z,6.54
2019-02-11T18:32:37.240Z,6.49
2019-02-11T18:35:40.372Z,6.47
2019-02-11T18:38:43.540Z,6.38
2019-02-11T18:41:46.629Z,6.28
2019-02-11T18:44:49.716Z,6.26
2019-02-11T18:47:52.807Z,6.31
2019-02-11T18:50:56.035Z,6.31
2019-02-11T18:53:59.188Z,6.32
2019-02-11T18:57:02.292Z,6.26
2019-02-11T19:00:05.872Z,6.41
2019-02-11T19:03:08.992Z,6.28
2019-02-11T19:06:12.070Z,6.19
2019-02-11T19:09:16.877Z,6.04
2019-02-11T19:12:20.021Z,5.93
2019-02-11T19:15:23.207Z,5.86
2019-02-11T19:18:26.382Z,5.87
2019-02-11T19:21:29.471Z,5.76
2019-02-11T19:24:32.575Z,5.69
2019-02-11T19:27:35.632Z,5.70
2019-02-11T19:30:38.761Z,5.70
2019-02-11T19:33:41.879Z,5.67
2019-02-11T19:36:45.088Z,5.60
2019-02-11T19:39:48.190Z,5.64
2019-02-11T19:42:51.335Z,5.59
2019-02-11T19:45:54.420Z,5.53
2019-02-11T19:48:57.504Z,5.48
2019-02-11T19:52:00.628Z,5.64
2019-02-11T19:55:03.810Z,5.46
2019-02-11T19:58:06.877Z,5.43
2019-02-11T20:01:09.977Z,5.40
2019-02-11T20:04:13.068Z,5.36
2019-02-11T20:07:17.083Z,5.27
2019-02-11T20:10:20.227Z,5.21
2019-02-11T20:13:23.367Z,5.35
2019-02-11T20:16:26.439Z,5.16
2019-02-11T20:19:29.551Z,5.28
2019-02-11T20:22:32.639Z,5.18
2019-02-11T20:25:35.704Z,5.21
2019-02-11T20:28:38.892Z,5.28
2019-02-11T20:31:42.039Z,5.21
2019-02-11T20:34:45.111Z,5.14
2019-02-11T20:37:48.243Z,5.08
2019-02-11T20:40:51.443Z,5.03
2019-02-11T20:43:54.508Z,5.12
2019-02-11T20:46:57.611Z,4.96
2019-02-11T20:50:08.646Z,4.90
2019-02-11T20:53:03.900Z,4.89
2019-02-11T20:56:07.155Z,4.77
2019-02-11T20:59:10.256Z,4.71
2019-02-11T21:02:13.343Z,4.73
2019-02-11T21:05:16.412Z,4.82
2019-02-11T21:08:19.497Z,4.64
2019-02-11T21:11:22.654Z,4.68
2019-02-11T21:14:25.775Z,4.59
2019-02-11T21:17:28.850Z,4.51
2019-02-11T21:20:34.526Z,4.52
2019-02-11T21:23:37.583Z,4.51
2019-02-11T21:26:40.788Z,4.46
2019-02-11T21:29:43.869Z,4.37
2019-02-11T21:32:46.984Z,4.15
2019-02-11T21:35:50.654Z,3.85
2019-02-11T21:38:53.777Z,3.81
2019-02-11T21:41:56.922Z,3.86
2019-02-11T21:45:00.156Z,3.95
2019-02-11T21:48:03.227Z,4.00
2019-02-11T21:51:06.332Z,4.04
2019-02-11T21:54:09.508Z,4.01
2019-02-11T21:57:12.619Z,3.88
2019-02-11T22:00:17.207Z,3.73
2019-02-11T22:03:20.351Z,3.60
2019-02-11T22:06:23.509Z,3.58
2019-02-11T22:09:26.665Z,3.63
2019-02-11T22:12:30.720Z,3.67
2019-02-11T22:15:33.825Z,3.69
2019-02-11T22:18:36.913Z,3.68
2019-02-11T22:21:39.995Z,3.66
2019-02-11T22:24:43.088Z,3.64
2019-02-11T22:27:46.188Z,3.58
2019-02-11T22:30:49.291Z,3.51
2019-02-11T22:33:52.352Z,3.46
2019-02-11T22:36:55.527Z,3.54
2019-02-11T22:39:59.496Z,3.45
2019-02-11T22:43:02.684Z,3.29
2019-02-11T22:46:05.764Z,3.11
2019-02-11T22:49:09.091Z,3.07
2019-02-11T22:52:12.244Z,2.93
2019-02-11T22:55:15.346Z,2.82
2019-02-11T22:58:18.431Z,2.86
2019-02-11T23:01:21.516Z,3.00
2019-02-11T23:04:24.715Z,3.09
2019-02-11T23:07:27.860Z,3.27
2019-02-11T23:10:31.044Z,3.28
2019-02-11T23:13:34.203Z,3.26
2019-02-11T23:16:38.701Z,3.27
2019-02-11T23:19:40.373Z,3.30
2019-02-11T23:22:43.472Z,3.24
2019-02-11T23:25:46.556Z,3.21
2019-02-11T23:28:49.656Z,3.18
2019-02-11T23:31:52.759Z,3.24
2019-02-11T23:34:55.852Z,3.31
2019-02-11T23:37:58.916Z,3.24
2019-02-11T23:41:02.041Z,3.20
2019-02-11T23:44:05.256Z,3.17
2019-02-11T23:47:08.426Z,3.13
2019-02-11T23:50:11.516Z,3.15
2019-02-11T23:53:14.606Z,3.21
2019-02-11T23:56:17.656Z,3.31
2019-02-11T23:59:20.737Z,3.34
